sensor_id;sensor_type;location;lat;lon;timestamp;temperature;humidity
4354;DHT22;11018;51.258;6.806;2023-11-22T00:00:51;7.10;68.50
4354;DHT22;11018;51.258;6.806;2023-11-22T00:03:16;7.00;69.70
4354;DHT22;11018;51.258;6.806;2023-11-22T00:05:42;7.00;70.10
4354;DHT22;11018;51.258;6.806;2023-11-22T00:08:08;7.10;70.00
4354;DHT22;11018;51.258;6.806;2023-11-22T00:10:33;7.10;70.00
4354;DHT22;11018;51.258;6.806;2023-11-22T00:12:59;7.10;69.80
4354;DHT22;11018;51.258;6.806;2023-11-22T00:15:25;7.10;70.60
4354;DHT22;11018;51.258;6.806;2023-11-22T00:17:51;7.10;70.70
4354;DHT22;11018;51.258;6.806;2023-11-22T00:20:18;7.00;70.90
4354;DHT22;11018;51.258;6.806;2023-11-22T00:22:44;6.90;71.90
4354;DHT22;11018;51.258;6.806;2023-11-22T00:25:10;6.90;73.20
4354;DHT22;11018;51.258;6.806;2023-11-22T00:27:38;6.80;74.50
4354;DHT22;11018;51.258;6.806;2023-11-22T00:30:04;6.90;75.60
4354;DHT22;11018;51.258;6.806;2023-11-22T00:32:30;6.90;73.20
4354;DHT22;11018;51.258;6.806;2023-11-22T00:34:56;6.90;73.30
4354;DHT22;11018;51.258;6.806;2023-11-22T00:37:23;6.90;72.90
4354;DHT22;11018;51.258;6.806;2023-11-22T00:39:48;6.80;73.80
4354;DHT22;11018;51.258;6.806;2023-11-22T00:42:14;6.80;73.90
4354;DHT22;11018;51.258;6.806;2023-11-22T00:44:39;6.70;75.20
4354;DHT22;11018;51.258;6.806;2023-11-22T00:47:05;6.70;76.40
4354;DHT22;11018;51.258;6.806;2023-11-22T00:49:31;6.60;77.20
4354;DHT22;11018;51.258;6.806;2023-11-22T00:51:57;6.50;78.30
4354;DHT22;11018;51.258;6.806;2023-11-22T00:54:23;6.50;78.70
4354;DHT22;11018;51.258;6.806;2023-11-22T00:56:51;6.40;78.50
4354;DHT22;11018;51.258;6.806;2023-11-22T00:59:17;6.40;77.90
4354;DHT22;11018;51.258;6.806;2023-11-22T01:01:43;6.30;78.30
4354;DHT22;11018;51.258;6.806;2023-11-22T01:04:08;6.20;78.50
4354;DHT22;11018;51.258;6.806;2023-11-22T01:06:34;6.20;78.50
4354;DHT22;11018;51.258;6.806;2023-11-22T01:09:00;6.10;79.30
4354;DHT22;11018;51.258;6.806;2023-11-22T01:11:26;6.10;79.60
4354;DHT22;11018;51.258;6.806;2023-11-22T01:13:52;6.10;79.50
4354;DHT22;11018;51.258;6.806;2023-11-22T01:16:17;6.10;78.70
4354;DHT22;11018;51.258;6.806;2023-11-22T01:18:43;6.00;78.60
4354;DHT22;11018;51.258;6.806;2023-11-22T01:21:11;6.00;79.30
4354;DHT22;11018;51.258;6.806;2023-11-22T01:23:37;5.90;79.20
4354;DHT22;11018;51.258;6.806;2023-11-22T01:26:09;5.90;79.20
4354;DHT22;11018;51.258;6.806;2023-11-22T01:28:35;5.90;79.30
4354;DHT22;11018;51.258;6.806;2023-11-22T01:31:00;5.90;79.60
4354;DHT22;11018;51.258;6.806;2023-11-22T01:33:29;5.90;79.60
4354;DHT22;11018;51.258;6.806;2023-11-22T01:35:54;5.90;79.80
4354;DHT22;11018;51.258;6.806;2023-11-22T01:38:20;5.80;80.50
4354;DHT22;11018;51.258;6.806;2023-11-22T01:40:46;5.80;80.70
4354;DHT22;11018;51.258;6.806;2023-11-22T01:43:14;5.80;80.10
4354;DHT22;11018;51.258;6.806;2023-11-22T01:45:40;5.80;80.50
4354;DHT22;11018;51.258;6.806;2023-11-22T01:48:06;5.70;81.40
4354;DHT22;11018;51.258;6.806;2023-11-22T01:50:32;5.70;83.00
4354;DHT22;11018;51.258;6.806;2023-11-22T01:52:59;5.60;83.70
4354;DHT22;11018;51.258;6.806;2023-11-22T01:55:25;5.50;84.70
4354;DHT22;11018;51.258;6.806;2023-11-22T01:57:51;5.50;87.70
4354;DHT22;11018;51.258;6.806;2023-11-22T02:00:17;5.60;85.50
4354;DHT22;11018;51.258;6.806;2023-11-22T02:02:43;5.70;83.80
4354;DHT22;11018;51.258;6.806;2023-11-22T02:05:09;5.70;82.90
4354;DHT22;11018;51.258;6.806;2023-11-22T02:07:35;5.60;83.00
4354;DHT22;11018;51.258;6.806;2023-11-22T02:10:01;5.60;83.80
4354;DHT22;11018;51.258;6.806;2023-11-22T02:12:32;5.60;83.10
4354;DHT22;11018;51.258;6.806;2023-11-22T02:14:58;5.50;83.60
4354;DHT22;11018;51.258;6.806;2023-11-22T02:17:24;5.50;84.60
4354;DHT22;11018;51.258;6.806;2023-11-22T02:19:50;5.40;85.50
4354;DHT22;11018;51.258;6.806;2023-11-22T02:22:16;5.30;85.90
4354;DHT22;11018;51.258;6.806;2023-11-22T02:24:41;5.20;87.30
4354;DHT22;11018;51.258;6.806;2023-11-22T02:27:07;5.00;87.00
4354;DHT22;11018;51.258;6.806;2023-11-22T02:29:32;5.00;90.90
4354;DHT22;11018;51.258;6.806;2023-11-22T02:31:58;5.20;86.70
4354;DHT22;11018;51.258;6.806;2023-11-22T02:34:23;5.30;83.30
4354;DHT22;11018;51.258;6.806;2023-11-22T02:36:49;5.30;82.10
4354;DHT22;11018;51.258;6.806;2023-11-22T02:39:14;5.20;81.90
4354;DHT22;11018;51.258;6.806;2023-11-22T02:41:41;5.20;82.20
4354;DHT22;11018;51.258;6.806;2023-11-22T02:44:07;5.20;82.70
4354;DHT22;11018;51.258;6.806;2023-11-22T02:46:33;5.20;81.60
4354;DHT22;11018;51.258;6.806;2023-11-22T02:48:59;5.10;81.10
4354;DHT22;11018;51.258;6.806;2023-11-22T02:51:25;5.10;82.80
4354;DHT22;11018;51.258;6.806;2023-11-22T02:53:51;4.90;84.10
4354;DHT22;11018;51.258;6.806;2023-11-22T02:56:17;4.80;84.50
4354;DHT22;11018;51.258;6.806;2023-11-22T02:58:43;4.80;86.50
4354;DHT22;11018;51.258;6.806;2023-11-22T03:01:08;4.60;88.00
4354;DHT22;11018;51.258;6.806;2023-11-22T03:03:34;4.70;89.10
4354;DHT22;11018;51.258;6.806;2023-11-22T03:06:00;4.90;90.10
4354;DHT22;11018;51.258;6.806;2023-11-22T03:08:26;5.10;85.40
4354;DHT22;11018;51.258;6.806;2023-11-22T03:10:53;5.10;82.70
4354;DHT22;11018;51.258;6.806;2023-11-22T03:13:18;5.10;81.50
4354;DHT22;11018;51.258;6.806;2023-11-22T03:15:44;5.20;79.70
4354;DHT22;11018;51.258;6.806;2023-11-22T03:18:10;5.20;78.90
4354;DHT22;11018;51.258;6.806;2023-11-22T03:20:36;5.20;78.70
4354;DHT22;11018;51.258;6.806;2023-11-22T03:23:03;5.20;79.20
4354;DHT22;11018;51.258;6.806;2023-11-22T03:25:28;5.10;80.70
4354;DHT22;11018;51.258;6.806;2023-11-22T03:27:54;5.00;81.10
4354;DHT22;11018;51.258;6.806;2023-11-22T03:30:20;5.00;81.80
4354;DHT22;11018;51.258;6.806;2023-11-22T03:32:46;4.90;84.10
4354;DHT22;11018;51.258;6.806;2023-11-22T03:35:11;4.80;84.30
4354;DHT22;11018;51.258;6.806;2023-11-22T03:37:37;4.70;87.10
4354;DHT22;11018;51.258;6.806;2023-11-22T03:40:03;4.80;86.30
4354;DHT22;11018;51.258;6.806;2023-11-22T03:42:29;4.70;85.20
4354;DHT22;11018;51.258;6.806;2023-11-22T03:44:55;4.70;87.50
4354;DHT22;11018;51.258;6.806;2023-11-22T03:47:20;4.80;86.40
4354;DHT22;11018;51.258;6.806;2023-11-22T03:49:46;4.90;85.00
4354;DHT22;11018;51.258;6.806;2023-11-22T03:52:12;5.00;82.90
4354;DHT22;11018;51.258;6.806;2023-11-22T03:54:38;5.20;80.90
4354;DHT22;11018;51.258;6.806;2023-11-22T03:57:04;5.20;81.50
4354;DHT22;11018;51.258;6.806;2023-11-22T03:59:30;5.30;80.40
4354;DHT22;11018;51.258;6.806;2023-11-22T04:01:56;5.30;80.50
4354;DHT22;11018;51.258;6.806;2023-11-22T04:04:22;5.40;80.90
4354;DHT22;11018;51.258;6.806;2023-11-22T04:06:48;5.40;79.10
4354;DHT22;11018;51.258;6.806;2023-11-22T04:09:14;5.40;79.40
4354;DHT22;11018;51.258;6.806;2023-11-22T04:11:42;5.40;77.80
4354;DHT22;11018;51.258;6.806;2023-11-22T04:14:08;5.40;75.40
4354;DHT22;11018;51.258;6.806;2023-11-22T04:16:34;5.30;74.90
4354;DHT22;11018;51.258;6.806;2023-11-22T04:18:59;5.20;75.00
4354;DHT22;11018;51.258;6.806;2023-11-22T04:21:25;5.10;76.20
4354;DHT22;11018;51.258;6.806;2023-11-22T04:23:50;5.00;78.00
4354;DHT22;11018;51.258;6.806;2023-11-22T04:26:16;4.90;79.50
4354;DHT22;11018;51.258;6.806;2023-11-22T04:28:42;4.90;78.50
4354;DHT22;11018;51.258;6.806;2023-11-22T04:31:07;4.90;80.00
4354;DHT22;11018;51.258;6.806;2023-11-22T04:33:36;5.00;77.20
4354;DHT22;11018;51.258;6.806;2023-11-22T04:36:03;5.00;75.80
4354;DHT22;11018;51.258;6.806;2023-11-22T04:38:28;4.90;75.10
4354;DHT22;11018;51.258;6.806;2023-11-22T04:40:54;4.90;75.30
4354;DHT22;11018;51.258;6.806;2023-11-22T04:43:19;4.90;75.10
4354;DHT22;11018;51.258;6.806;2023-11-22T04:45:45;4.90;75.30
4354;DHT22;11018;51.258;6.806;2023-11-22T04:48:11;4.80;75.70
4354;DHT22;11018;51.258;6.806;2023-11-22T04:50:37;4.80;75.60
4354;DHT22;11018;51.258;6.806;2023-11-22T04:53:02;4.80;76.10
4354;DHT22;11018;51.258;6.806;2023-11-22T04:55:28;4.80;75.60
4354;DHT22;11018;51.258;6.806;2023-11-22T04:57:54;4.80;75.70
4354;DHT22;11018;51.258;6.806;2023-11-22T05:00:21;4.70;75.80
4354;DHT22;11018;51.258;6.806;2023-11-22T05:02:48;4.70;76.20
4354;DHT22;11018;51.258;6.806;2023-11-22T05:05:13;4.60;78.10
4354;DHT22;11018;51.258;6.806;2023-11-22T05:07:39;4.70;78.20
4354;DHT22;11018;51.258;6.806;2023-11-22T05:10:05;4.70;78.30
4354;DHT22;11018;51.258;6.806;2023-11-22T05:12:34;4.70;77.40
4354;DHT22;11018;51.258;6.806;2023-11-22T05:15:00;4.60;77.60
4354;DHT22;11018;51.258;6.806;2023-11-22T05:17:25;4.70;77.00
4354;DHT22;11018;51.258;6.806;2023-11-22T05:19:51;4.70;76.90
4354;DHT22;11018;51.258;6.806;2023-11-22T05:22:16;4.60;77.50
4354;DHT22;11018;51.258;6.806;2023-11-22T05:24:42;4.60;77.50
4354;DHT22;11018;51.258;6.806;2023-11-22T05:27:08;4.60;76.40
4354;DHT22;11018;51.258;6.806;2023-11-22T05:29:34;4.50;76.50
4354;DHT22;11018;51.258;6.806;2023-11-22T05:32:00;4.60;76.30
4354;DHT22;11018;51.258;6.806;2023-11-22T05:34:26;4.50;76.70
4354;DHT22;11018;51.258;6.806;2023-11-22T05:36:52;4.50;76.10
4354;DHT22;11018;51.258;6.806;2023-11-22T05:39:18;4.40;77.80
4354;DHT22;11018;51.258;6.806;2023-11-22T05:41:44;4.40;76.80
4354;DHT22;11018;51.258;6.806;2023-11-22T05:44:09;4.50;76.40
4354;DHT22;11018;51.258;6.806;2023-11-22T05:46:35;4.40;76.30
4354;DHT22;11018;51.258;6.806;2023-11-22T05:49:00;4.40;76.80
4354;DHT22;11018;51.258;6.806;2023-11-22T05:51:26;4.10;78.60
4354;DHT22;11018;51.258;6.806;2023-11-22T05:53:52;3.90;81.80
4354;DHT22;11018;51.258;6.806;2023-11-22T05:56:17;4.00;85.00
4354;DHT22;11018;51.258;6.806;2023-11-22T05:58:44;3.90;84.40
4354;DHT22;11018;51.258;6.806;2023-11-22T06:01:09;3.90;85.70
4354;DHT22;11018;51.258;6.806;2023-11-22T06:03:37;3.80;86.10
4354;DHT22;11018;51.258;6.806;2023-11-22T06:06:04;3.50;88.20
4354;DHT22;11018;51.258;6.806;2023-11-22T06:08:30;3.40;90.30
4354;DHT22;11018;51.258;6.806;2023-11-22T06:10:56;3.30;91.00
4354;DHT22;11018;51.258;6.806;2023-11-22T06:13:23;3.20;92.90
4354;DHT22;11018;51.258;6.806;2023-11-22T06:15:49;3.10;94.10
4354;DHT22;11018;51.258;6.806;2023-11-22T06:18:14;3.10;96.30
4354;DHT22;11018;51.258;6.806;2023-11-22T06:20:41;3.40;96.60
4354;DHT22;11018;51.258;6.806;2023-11-22T06:23:07;3.60;92.70
4354;DHT22;11018;51.258;6.806;2023-11-22T06:25:32;3.60;90.90
4354;DHT22;11018;51.258;6.806;2023-11-22T06:27:58;3.80;90.60
4354;DHT22;11018;51.258;6.806;2023-11-22T06:30:24;3.80;85.90
4354;DHT22;11018;51.258;6.806;2023-11-22T06:32:51;3.70;85.30
4354;DHT22;11018;51.258;6.806;2023-11-22T06:35:16;3.70;86.20
4354;DHT22;11018;51.258;6.806;2023-11-22T06:37:43;3.80;85.10
4354;DHT22;11018;51.258;6.806;2023-11-22T06:40:10;3.60;85.60
4354;DHT22;11018;51.258;6.806;2023-11-22T06:42:38;3.70;83.40
4354;DHT22;11018;51.258;6.806;2023-11-22T06:45:05;3.60;86.60
4354;DHT22;11018;51.258;6.806;2023-11-22T06:47:32;3.60;85.60
4354;DHT22;11018;51.258;6.806;2023-11-22T06:49:57;3.60;86.20
4354;DHT22;11018;51.258;6.806;2023-11-22T06:52:23;3.40;87.10
4354;DHT22;11018;51.258;6.806;2023-11-22T06:54:49;3.10;87.10
4354;DHT22;11018;51.258;6.806;2023-11-22T06:57:15;2.90;89.60
4354;DHT22;11018;51.258;6.806;2023-11-22T06:59:40;2.80;93.40
4354;DHT22;11018;51.258;6.806;2023-11-22T07:02:06;2.90;94.70
4354;DHT22;11018;51.258;6.806;2023-11-22T07:04:32;2.90;94.60
4354;DHT22;11018;51.258;6.806;2023-11-22T07:06:58;3.20;94.50
4354;DHT22;11018;51.258;6.806;2023-11-22T07:09:24;3.00;91.60
4354;DHT22;11018;51.258;6.806;2023-11-22T07:11:50;2.90;93.90
4354;DHT22;11018;51.258;6.806;2023-11-22T07:14:17;2.90;95.20
4354;DHT22;11018;51.258;6.806;2023-11-22T07:16:42;3.20;92.30
4354;DHT22;11018;51.258;6.806;2023-11-22T07:19:08;3.20;89.90
4354;DHT22;11018;51.258;6.806;2023-11-22T07:21:33;3.30;89.10
4354;DHT22;11018;51.258;6.806;2023-11-22T07:24:03;3.20;88.20
4354;DHT22;11018;51.258;6.806;2023-11-22T07:26:32;3.20;88.70
4354;DHT22;11018;51.258;6.806;2023-11-22T07:28:58;3.10;89.30
4354;DHT22;11018;51.258;6.806;2023-11-22T07:31:24;3.10;90.00
4354;DHT22;11018;51.258;6.806;2023-11-22T07:33:50;3.10;92.00
4354;DHT22;11018;51.258;6.806;2023-11-22T07:36:17;3.10;92.00
4354;DHT22;11018;51.258;6.806;2023-11-22T07:38:42;3.20;91.80
4354;DHT22;11018;51.258;6.806;2023-11-22T07:41:08;3.20;91.70
4354;DHT22;11018;51.258;6.806;2023-11-22T07:43:34;3.30;93.10
4354;DHT22;11018;51.258;6.806;2023-11-22T07:45:59;3.60;89.10
4354;DHT22;11018;51.258;6.806;2023-11-22T07:48:26;3.70;86.10
4354;DHT22;11018;51.258;6.806;2023-11-22T07:50:53;3.50;87.10
4354;DHT22;11018;51.258;6.806;2023-11-22T07:53:19;3.30;90.00
4354;DHT22;11018;51.258;6.806;2023-11-22T07:55:45;3.30;92.60
4354;DHT22;11018;51.258;6.806;2023-11-22T07:58:11;3.50;92.30
4354;DHT22;11018;51.258;6.806;2023-11-22T08:00:36;3.70;89.10
4354;DHT22;11018;51.258;6.806;2023-11-22T08:03:02;3.70;89.70
4354;DHT22;11018;51.258;6.806;2023-11-22T08:05:31;3.60;89.70
4354;DHT22;11018;51.258;6.806;2023-11-22T08:08:05;3.70;89.20
4354;DHT22;11018;51.258;6.806;2023-11-22T08:10:37;3.90;85.80
4354;DHT22;11018;51.258;6.806;2023-11-22T08:13:03;3.90;83.80
4354;DHT22;11018;51.258;6.806;2023-11-22T08:15:29;3.80;84.50
4354;DHT22;11018;51.258;6.806;2023-11-22T08:17:57;3.80;86.60
4354;DHT22;11018;51.258;6.806;2023-11-22T08:20:24;3.80;86.90
4354;DHT22;11018;51.258;6.806;2023-11-22T08:22:50;3.90;86.10
4354;DHT22;11018;51.258;6.806;2023-11-22T08:25:16;3.90;87.00
4354;DHT22;11018;51.258;6.806;2023-11-22T08:27:42;3.90;85.00
4354;DHT22;11018;51.258;6.806;2023-11-22T08:30:08;4.00;85.30
4354;DHT22;11018;51.258;6.806;2023-11-22T08:32:39;4.30;80.00
4354;DHT22;11018;51.258;6.806;2023-11-22T08:35:05;4.30;79.20
4354;DHT22;11018;51.258;6.806;2023-11-22T08:37:33;4.30;79.40
4354;DHT22;11018;51.258;6.806;2023-11-22T08:40:01;4.60;71.50
4354;DHT22;11018;51.258;6.806;2023-11-22T08:42:26;4.70;69.30
4354;DHT22;11018;51.258;6.806;2023-11-22T08:44:52;4.80;67.60
4354;DHT22;11018;51.258;6.806;2023-11-22T08:47:17;5.00;66.20
4354;DHT22;11018;51.258;6.806;2023-11-22T08:49:43;5.40;62.00
4354;DHT22;11018;51.258;6.806;2023-11-22T08:52:08;5.50;59.10
4354;DHT22;11018;51.258;6.806;2023-11-22T08:54:34;5.50;56.60
4354;DHT22;11018;51.258;6.806;2023-11-22T08:57:00;5.60;54.60
4354;DHT22;11018;51.258;6.806;2023-11-22T08:59:26;5.70;53.20
4354;DHT22;11018;51.258;6.806;2023-11-22T09:01:52;5.70;53.00
4354;DHT22;11018;51.258;6.806;2023-11-22T09:04:17;5.70;53.90
4354;DHT22;11018;51.258;6.806;2023-11-22T09:06:44;5.70;54.70
4354;DHT22;11018;51.258;6.806;2023-11-22T09:09:09;5.80;52.90
4354;DHT22;11018;51.258;6.806;2023-11-22T09:11:40;5.80;53.90
4354;DHT22;11018;51.258;6.806;2023-11-22T09:14:06;5.80;53.40
4354;DHT22;11018;51.258;6.806;2023-11-22T09:16:36;5.90;55.40
4354;DHT22;11018;51.258;6.806;2023-11-22T09:19:04;6.10;52.60
4354;DHT22;11018;51.258;6.806;2023-11-22T09:21:32;6.30;49.10
4354;DHT22;11018;51.258;6.806;2023-11-22T09:23:58;6.40;48.40
4354;DHT22;11018;51.258;6.806;2023-11-22T09:26:24;6.50;47.90
4354;DHT22;11018;51.258;6.806;2023-11-22T09:28:50;6.70;45.10
4354;DHT22;11018;51.258;6.806;2023-11-22T09:31:15;6.80;41.50
4354;DHT22;11018;51.258;6.806;2023-11-22T09:33:45;6.90;42.40
4354;DHT22;11018;51.258;6.806;2023-11-22T09:36:12;6.90;42.10
4354;DHT22;11018;51.258;6.806;2023-11-22T09:38:38;7.00;42.00
4354;DHT22;11018;51.258;6.806;2023-11-22T09:41:04;7.20;40.20
4354;DHT22;11018;51.258;6.806;2023-11-22T09:43:30;7.30;39.60
4354;DHT22;11018;51.258;6.806;2023-11-22T09:45:55;7.30;40.50
4354;DHT22;11018;51.258;6.806;2023-11-22T09:48:23;7.50;37.60
4354;DHT22;11018;51.258;6.806;2023-11-22T09:53:47;7.40;35.50
4354;DHT22;11018;51.258;6.806;2023-11-22T09:56:16;7.50;36.70
4354;DHT22;11018;51.258;6.806;2023-11-22T09:58:44;7.50;36.10
4354;DHT22;11018;51.258;6.806;2023-11-22T10:01:16;7.60;35.70
4354;DHT22;11018;51.258;6.806;2023-11-22T10:03:42;7.60;35.20
4354;DHT22;11018;51.258;6.806;2023-11-22T10:06:08;7.40;36.00
4354;DHT22;11018;51.258;6.806;2023-11-22T10:08:34;7.70;35.80
4354;DHT22;11018;51.258;6.806;2023-11-22T10:11:01;7.90;33.10
4354;DHT22;11018;51.258;6.806;2023-11-22T10:13:27;8.00;33.40
4354;DHT22;11018;51.258;6.806;2023-11-22T10:15:53;8.10;33.30
4354;DHT22;11018;51.258;6.806;2023-11-22T10:18:20;8.20;29.60
4354;DHT22;11018;51.258;6.806;2023-11-22T10:20:48;8.20;29.90
4354;DHT22;11018;51.258;6.806;2023-11-22T10:23:18;8.20;29.60
4354;DHT22;11018;51.258;6.806;2023-11-22T10:25:51;8.20;30.10
4354;DHT22;11018;51.258;6.806;2023-11-22T10:28:22;8.20;29.40
4354;DHT22;11018;51.258;6.806;2023-11-22T10:30:50;8.20;29.00
4354;DHT22;11018;51.258;6.806;2023-11-22T10:33:17;8.30;28.80
4354;DHT22;11018;51.258;6.806;2023-11-22T10:35:47;8.40;28.60
4354;DHT22;11018;51.258;6.806;2023-11-22T10:38:20;8.50;26.50
4354;DHT22;11018;51.258;6.806;2023-11-22T10:40:46;8.60;26.40
4354;DHT22;11018;51.258;6.806;2023-11-22T10:43:16;8.60;26.80
4354;DHT22;11018;51.258;6.806;2023-11-22T10:45:43;8.60;26.50
4354;DHT22;11018;51.258;6.806;2023-11-22T10:48:17;8.40;27.70
4354;DHT22;11018;51.258;6.806;2023-11-22T10:50:46;8.50;28.00
4354;DHT22;11018;51.258;6.806;2023-11-22T10:53:15;8.70;28.90
4354;DHT22;11018;51.258;6.806;2023-11-22T10:55:48;8.60;28.50
4354;DHT22;11018;51.258;6.806;2023-11-22T10:58:14;8.50;28.90
4354;DHT22;11018;51.258;6.806;2023-11-22T11:00:41;8.60;30.00
4354;DHT22;11018;51.258;6.806;2023-11-22T11:03:13;8.70;29.10
4354;DHT22;11018;51.258;6.806;2023-11-22T11:05:52;8.60;28.90
4354;DHT22;11018;51.258;6.806;2023-11-22T11:08:17;8.50;28.70
4354;DHT22;11018;51.258;6.806;2023-11-22T11:10:46;8.50;27.60
4354;DHT22;11018;51.258;6.806;2023-11-22T11:13:12;8.40;27.90
4354;DHT22;11018;51.258;6.806;2023-11-22T11:15:40;8.30;27.70
4354;DHT22;11018;51.258;6.806;2023-11-22T11:18:12;8.40;27.70
4354;DHT22;11018;51.258;6.806;2023-11-22T11:20:51;8.40;28.00
4354;DHT22;11018;51.258;6.806;2023-11-22T11:23:23;8.30;28.40
4354;DHT22;11018;51.258;6.806;2023-11-22T11:25:51;8.20;28.00
4354;DHT22;11018;51.258;6.806;2023-11-22T11:28:18;8.30;26.70
4354;DHT22;11018;51.258;6.806;2023-11-22T11:30:50;8.40;26.80
4354;DHT22;11018;51.258;6.806;2023-11-22T11:33:18;8.60;27.10
4354;DHT22;11018;51.258;6.806;2023-11-22T11:35:49;9.00;25.90
4354;DHT22;11018;51.258;6.806;2023-11-22T11:38:39;9.20;24.50
4354;DHT22;11018;51.258;6.806;2023-11-22T11:41:11;9.20;24.80
4354;DHT22;11018;51.258;6.806;2023-11-22T11:43:46;8.90;25.10
4354;DHT22;11018;51.258;6.806;2023-11-22T11:46:12;9.10;24.50
4354;DHT22;11018;51.258;6.806;2023-11-22T11:48:49;9.20;24.40
4354;DHT22;11018;51.258;6.806;2023-11-22T11:51:23;9.30;23.00
4354;DHT22;11018;51.258;6.806;2023-11-22T11:53:49;9.30;22.50
4354;DHT22;11018;51.258;6.806;2023-11-22T11:56:15;9.20;23.40
4354;DHT22;11018;51.258;6.806;2023-11-22T11:58:42;9.30;23.90
4354;DHT22;11018;51.258;6.806;2023-11-22T12:01:09;9.10;23.00
4354;DHT22;11018;51.258;6.806;2023-11-22T12:03:36;9.00;22.80
4354;DHT22;11018;51.258;6.806;2023-11-22T12:06:02;9.20;22.10
4354;DHT22;11018;51.258;6.806;2023-11-22T12:08:28;9.40;21.30
4354;DHT22;11018;51.258;6.806;2023-11-22T12:10:56;9.20;19.70
4354;DHT22;11018;51.258;6.806;2023-11-22T12:13:24;9.10;21.50
4354;DHT22;11018;51.258;6.806;2023-11-22T12:15:52;9.00;21.00
4354;DHT22;11018;51.258;6.806;2023-11-22T12:18:19;8.80;22.20
4354;DHT22;11018;51.258;6.806;2023-11-22T12:20:58;8.50;22.20
4354;DHT22;11018;51.258;6.806;2023-11-22T12:23:25;8.30;23.00
4354;DHT22;11018;51.258;6.806;2023-11-22T12:25:59;8.10;24.40
4354;DHT22;11018;51.258;6.806;2023-11-22T12:28:30;7.90;24.60
4354;DHT22;11018;51.258;6.806;2023-11-22T12:31:05;7.90;25.50
4354;DHT22;11018;51.258;6.806;2023-11-22T12:33:31;7.90;25.60
4354;DHT22;11018;51.258;6.806;2023-11-22T12:35:57;7.90;25.70
4354;DHT22;11018;51.258;6.806;2023-11-22T12:38:23;8.00;24.20
4354;DHT22;11018;51.258;6.806;2023-11-22T12:40:51;8.00;24.60
4354;DHT22;11018;51.258;6.806;2023-11-22T12:43:17;8.00;23.40
4354;DHT22;11018;51.258;6.806;2023-11-22T12:45:42;8.20;24.10
4354;DHT22;11018;51.258;6.806;2023-11-22T12:48:21;8.30;25.10
4354;DHT22;11018;51.258;6.806;2023-11-22T12:50:48;8.30;23.50
4354;DHT22;11018;51.258;6.806;2023-11-22T12:53:15;8.50;23.40
4354;DHT22;11018;51.258;6.806;2023-11-22T12:55:45;8.90;22.20
4354;DHT22;11018;51.258;6.806;2023-11-22T12:58:12;8.80;21.90
4354;DHT22;11018;51.258;6.806;2023-11-22T13:00:41;8.70;22.10
4354;DHT22;11018;51.258;6.806;2023-11-22T13:03:08;8.60;22.10
4354;DHT22;11018;51.258;6.806;2023-11-22T13:05:39;8.50;21.80
4354;DHT22;11018;51.258;6.806;2023-11-22T13:08:05;8.40;21.90
4354;DHT22;11018;51.258;6.806;2023-11-22T13:10:31;8.40;22.40
4354;DHT22;11018;51.258;6.806;2023-11-22T13:12:57;8.30;22.60
4354;DHT22;11018;51.258;6.806;2023-11-22T13:15:23;8.40;22.90
4354;DHT22;11018;51.258;6.806;2023-11-22T13:17:52;8.50;23.30
4354;DHT22;11018;51.258;6.806;2023-11-22T13:20:21;8.60;22.30
4354;DHT22;11018;51.258;6.806;2023-11-22T13:22:48;8.60;22.40
4354;DHT22;11018;51.258;6.806;2023-11-22T13:25:13;8.80;20.70
4354;DHT22;11018;51.258;6.806;2023-11-22T13:27:39;9.10;20.50
4354;DHT22;11018;51.258;6.806;2023-11-22T13:30:06;9.30;19.30
4354;DHT22;11018;51.258;6.806;2023-11-22T13:32:32;9.30;19.20
4354;DHT22;11018;51.258;6.806;2023-11-22T13:34:58;9.10;19.40
4354;DHT22;11018;51.258;6.806;2023-11-22T13:37:24;9.00;19.80
4354;DHT22;11018;51.258;6.806;2023-11-22T13:39:50;9.10;19.20
4354;DHT22;11018;51.258;6.806;2023-11-22T13:42:16;9.20;19.40
4354;DHT22;11018;51.258;6.806;2023-11-22T13:44:42;9.10;19.70
4354;DHT22;11018;51.258;6.806;2023-11-22T13:47:09;8.90;19.30
4354;DHT22;11018;51.258;6.806;2023-11-22T13:49:35;8.80;19.80
4354;DHT22;11018;51.258;6.806;2023-11-22T13:52:01;8.80;21.40
4354;DHT22;11018;51.258;6.806;2023-11-22T13:54:27;8.80;23.00
4354;DHT22;11018;51.258;6.806;2023-11-22T13:56:52;8.80;25.20
4354;DHT22;11018;51.258;6.806;2023-11-22T13:59:18;8.80;25.80
4354;DHT22;11018;51.258;6.806;2023-11-22T14:01:45;8.60;26.70
4354;DHT22;11018;51.258;6.806;2023-11-22T14:04:11;8.60;27.50
4354;DHT22;11018;51.258;6.806;2023-11-22T14:06:36;8.50;27.00
4354;DHT22;11018;51.258;6.806;2023-11-22T14:09:02;8.40;27.40
4354;DHT22;11018;51.258;6.806;2023-11-22T14:11:28;8.60;27.10
4354;DHT22;11018;51.258;6.806;2023-11-22T14:13:55;8.50;27.80
4354;DHT22;11018;51.258;6.806;2023-11-22T14:16:20;8.40;28.10
4354;DHT22;11018;51.258;6.806;2023-11-22T14:18:46;8.40;27.00
4354;DHT22;11018;51.258;6.806;2023-11-22T14:21:12;9.20;27.40
4354;DHT22;11018;51.258;6.806;2023-11-22T14:23:37;8.20;26.80
4354;DHT22;11018;51.258;6.806;2023-11-22T14:26:03;8.20;27.20
4354;DHT22;11018;51.258;6.806;2023-11-22T14:28:29;8.20;25.10
4354;DHT22;11018;51.258;6.806;2023-11-22T14:30:55;8.20;25.60
4354;DHT22;11018;51.258;6.806;2023-11-22T14:33:21;8.20;23.20
4354;DHT22;11018;51.258;6.806;2023-11-22T14:35:46;8.30;22.40
4354;DHT22;11018;51.258;6.806;2023-11-22T14:38:12;8.30;21.80
4354;DHT22;11018;51.258;6.806;2023-11-22T14:40:39;8.30;22.10
4354;DHT22;11018;51.258;6.806;2023-11-22T14:43:05;8.30;21.30
4354;DHT22;11018;51.258;6.806;2023-11-22T14:45:31;8.30;22.30
4354;DHT22;11018;51.258;6.806;2023-11-22T14:47:58;8.20;21.70
4354;DHT22;11018;51.258;6.806;2023-11-22T14:50:24;8.10;20.90
4354;DHT22;11018;51.258;6.806;2023-11-22T14:52:52;8.20;21.20
4354;DHT22;11018;51.258;6.806;2023-11-22T14:55:18;8.20;21.60
4354;DHT22;11018;51.258;6.806;2023-11-22T14:57:46;8.10;23.40
4354;DHT22;11018;51.258;6.806;2023-11-22T15:00:13;8.10;24.40
4354;DHT22;11018;51.258;6.806;2023-11-22T15:02:39;8.00;25.00
4354;DHT22;11018;51.258;6.806;2023-11-22T15:05:06;7.90;25.30
4354;DHT22;11018;51.258;6.806;2023-11-22T15:07:35;7.90;26.40
4354;DHT22;11018;51.258;6.806;2023-11-22T15:10:01;7.90;25.90
4354;DHT22;11018;51.258;6.806;2023-11-22T15:12:27;7.80;26.50
4354;DHT22;11018;51.258;6.806;2023-11-22T15:14:56;7.80;26.50
4354;DHT22;11018;51.258;6.806;2023-11-22T15:17:22;7.80;27.10
4354;DHT22;11018;51.258;6.806;2023-11-22T15:19:47;7.70;27.90
4354;DHT22;11018;51.258;6.806;2023-11-22T15:22:13;7.60;28.00
4354;DHT22;11018;51.258;6.806;2023-11-22T15:24:39;7.70;29.30
4354;DHT22;11018;51.258;6.806;2023-11-22T15:27:04;7.70;27.50
4354;DHT22;11018;51.258;6.806;2023-11-22T15:29:30;7.70;28.30
4354;DHT22;11018;51.258;6.806;2023-11-22T15:31:57;7.80;29.10
4354;DHT22;11018;51.258;6.806;2023-11-22T15:34:23;7.60;29.70
4354;DHT22;11018;51.258;6.806;2023-11-22T15:36:48;7.60;30.70
4354;DHT22;11018;51.258;6.806;2023-11-22T15:39:14;7.60;30.40
4354;DHT22;11018;51.258;6.806;2023-11-22T15:41:43;7.70;29.00
4354;DHT22;11018;51.258;6.806;2023-11-22T15:44:09;7.70;30.00
4354;DHT22;11018;51.258;6.806;2023-11-22T15:46:35;7.70;29.30
4354;DHT22;11018;51.258;6.806;2023-11-22T15:49:00;7.60;26.30
4354;DHT22;11018;51.258;6.806;2023-11-22T15:51:26;7.70;27.00
4354;DHT22;11018;51.258;6.806;2023-11-22T15:53:52;7.60;28.30
4354;DHT22;11018;51.258;6.806;2023-11-22T15:56:17;7.60;28.90
4354;DHT22;11018;51.258;6.806;2023-11-22T15:58:44;7.50;28.70
4354;DHT22;11018;51.258;6.806;2023-11-22T16:01:10;7.60;28.40